sensor_id;sensor_type;location;lat;lon;timestamp;P1;durP1;ratioP1;P2;durP2;ratioP2
46881;SDS011;44112;38.408;-122.974;2022-08-04T00:01:52;7.07;;;4.20;;
46881;SDS011;44112;38.408;-122.974;2022-08-04T00:04:29;7.28;;;3.97;;
46881;SDS011;44112;38.408;-122.974;2022-08-04T00:07:15;6.93;;;4.03;;
46881;SDS011;44112;38.408;-122.974;2022-08-04T00:12:16;6.90;;;3.70;;
46881;SDS011;44112;38.408;-122.974;2022-08-04T00:14:48;7.25;;;4.32;;
46881;SDS011;44112;38.408;-122.974;2022-08-04T00:17:19;6.25;;;3.90;;
46881;SDS011;44112;38.408;-122.974;2022-08-04T00:19:48;7.10;;;4.35;;
46881;SDS011;44112;38.408;-122.974;2022-08-04T00:22:21;7.70;;;4.10;;
46881;SDS011;44112;38.408;-122.974;2022-08-04T00:24:51;7.65;;;4.28;;
46881;SDS011;44112;38.408;-122.974;2022-08-04T00:27:20;6.80;;;4.43;;
46881;SDS011;44112;38.408;-122.974;2022-08-04T00:29:46;7.38;;;3.88;;
46881;SDS011;44112;38.408;-122.974;2022-08-04T00:32:14;7.15;;;4.25;;
46881;SDS011;44112;38.408;-122.974;2022-08-04T00:34:44;6.18;;;3.83;;
46881;SDS011;44112;38.408;-122.974;2022-08-04T00:37:13;7.15;;;4.05;;
46881;SDS011;44112;38.408;-122.974;2022-08-04T00:39:41;6.80;;;4.22;;
46881;SDS011;44112;38.408;-122.974;2022-08-04T00:42:14;8.63;;;3.80;;
46881;SDS011;44112;38.408;-122.974;2022-08-04T01:01:38;6.25;;;3.67;;
46881;SDS011;44112;38.408;-122.974;2022-08-04T01:10:01;6.88;;;3.78;;
46881;SDS011;44112;38.408;-122.974;2022-08-04T01:12:36;8.13;;;4.22;;
46881;SDS011;44112;38.408;-122.974;2022-08-04T01:24:13;9.65;;;4.15;;
46881;SDS011;44112;38.408;-122.974;2022-08-04T01:29:48;7.03;;;4.10;;
46881;SDS011;44112;38.408;-122.974;2022-08-04T01:35:01;6.15;;;3.70;;
46881;SDS011;44112;38.408;-122.974;2022-08-04T01:41:15;7.93;;;4.05;;
46881;SDS011;44112;38.408;-122.974;2022-08-04T01:43:44;7.35;;;4.25;;
46881;SDS011;44112;38.408;-122.974;2022-08-04T01:46:12;6.60;;;4.18;;
46881;SDS011;44112;38.408;-122.974;2022-08-04T01:48:44;7.63;;;4.00;;
46881;SDS011;44112;38.408;-122.974;2022-08-04T01:51:12;7.32;;;3.95;;
46881;SDS011;44112;38.408;-122.974;2022-08-04T01:53:41;7.00;;;4.25;;
46881;SDS011;44112;38.408;-122.974;2022-08-04T01:56:09;8.93;;;4.13;;
46881;SDS011;44112;38.408;-122.974;2022-08-04T01:58:37;7.30;;;4.00;;
46881;SDS011;44112;38.408;-122.974;2022-08-04T02:01:06;6.75;;;4.18;;
46881;SDS011;44112;38.408;-122.974;2022-08-04T02:03:35;7.40;;;4.53;;
46881;SDS011;44112;38.408;-122.974;2022-08-04T02:08:56;8.52;;;4.22;;
46881;SDS011;44112;38.408;-122.974;2022-08-04T02:11:28;7.05;;;4.10;;
46881;SDS011;44112;38.408;-122.974;2022-08-04T02:16:43;7.90;;;4.57;;
46881;SDS011;44112;38.408;-122.974;2022-08-04T02:19:32;9.05;;;4.57;;
46881;SDS011;44112;38.408;-122.974;2022-08-04T02:22:08;9.15;;;4.53;;
46881;SDS011;44112;38.408;-122.974;2022-08-04T02:24:42;7.18;;;4.28;;
46881;SDS011;44112;38.408;-122.974;2022-08-04T02:27:14;9.43;;;4.72;;
46881;SDS011;44112;38.408;-122.974;2022-08-04T02:29:53;8.13;;;4.65;;
46881;SDS011;44112;38.408;-122.974;2022-08-04T02:32:28;8.13;;;4.35;;
46881;SDS011;44112;38.408;-122.974;2022-08-04T02:35:18;8.15;;;4.75;;
46881;SDS011;44112;38.408;-122.974;2022-08-04T02:38:11;8.07;;;4.50;;
46881;SDS011;44112;38.408;-122.974;2022-08-04T02:40:48;8.10;;;4.80;;
46881;SDS011;44112;38.408;-122.974;2022-08-04T02:43:17;6.85;;;4.13;;
46881;SDS011;44112;38.408;-122.974;2022-08-04T02:45:45;7.15;;;4.47;;
46881;SDS011;44112;38.408;-122.974;2022-08-04T02:48:13;7.35;;;4.63;;
46881;SDS011;44112;38.408;-122.974;2022-08-04T02:50:41;8.52;;;4.70;;
46881;SDS011;44112;38.408;-122.974;2022-08-04T02:53:09;7.55;;;4.50;;
46881;SDS011;44112;38.408;-122.974;2022-08-04T02:55:40;7.90;;;4.53;;
46881;SDS011;44112;38.408;-122.974;2022-08-04T02:58:09;6.95;;;4.07;;
46881;SDS011;44112;38.408;-122.974;2022-08-04T03:00:39;7.65;;;4.35;;
46881;SDS011;44112;38.408;-122.974;2022-08-04T03:22:45;8.20;;;4.60;;
46881;SDS011;44112;38.408;-122.974;2022-08-04T03:42:26;7.45;;;4.25;;
46881;SDS011;44112;38.408;-122.974;2022-08-04T04:01:58;38.67;;;31.75;;
46881;SDS011;44112;38.408;-122.974;2022-08-04T04:12:38;29.13;;;23.55;;
46881;SDS011;44112;38.408;-122.974;2022-08-04T04:15:41;28.73;;;23.13;;
46881;SDS011;44112;38.408;-122.974;2022-08-04T04:21:38;27.73;;;18.27;;
46881;SDS011;44112;38.408;-122.974;2022-08-04T04:29:51;14.35;;;9.45;;
46881;SDS011;44112;38.408;-122.974;2022-08-04T04:33:18;15.55;;;10.27;;
46881;SDS011;44112;38.408;-122.974;2022-08-04T04:35:40;14.40;;;10.02;;
46881;SDS011;44112;38.408;-122.974;2022-08-04T04:50:03;12.63;;;9.27;;
46881;SDS011;44112;38.408;-122.974;2022-08-04T04:58:05;8.70;;;6.13;;
46881;SDS011;44112;38.408;-122.974;2022-08-04T05:09:40;15.57;;;7.95;;
46881;SDS011;44112;38.408;-122.974;2022-08-04T05:12:21;8.60;;;6.80;;
46881;SDS011;44112;38.408;-122.974;2022-08-04T05:14:59;8.98;;;6.47;;
46881;SDS011;44112;38.408;-122.974;2022-08-04T05:17:32;9.23;;;6.28;;
46881;SDS011;44112;38.408;-122.974;2022-08-04T05:20:07;11.68;;;6.95;;
46881;SDS011;44112;38.408;-122.974;2022-08-04T05:23:22;10.95;;;7.10;;
46881;SDS011;44112;38.408;-122.974;2022-08-04T05:25:52;8.93;;;6.32;;
46881;SDS011;44112;38.408;-122.974;2022-08-04T05:28:27;9.20;;;6.80;;
46881;SDS011;44112;38.408;-122.974;2022-08-04T05:31:15;9.50;;;6.93;;
46881;SDS011;44112;38.408;-122.974;2022-08-04T05:33:53;10.77;;;6.88;;
46881;SDS011;44112;38.408;-122.974;2022-08-04T05:36:49;10.95;;;6.30;;
46881;SDS011;44112;38.408;-122.974;2022-08-04T05:39:20;10.20;;;6.45;;
46881;SDS011;44112;38.408;-122.974;2022-08-04T05:41:49;9.48;;;6.00;;
46881;SDS011;44112;38.408;-122.974;2022-08-04T05:44:17;9.68;;;6.28;;
46881;SDS011;44112;38.408;-122.974;2022-08-04T05:46:47;9.27;;;6.30;;
46881;SDS011;44112;38.408;-122.974;2022-08-04T05:49:15;9.82;;;5.85;;
46881;SDS011;44112;38.408;-122.974;2022-08-04T05:51:43;8.75;;;6.05;;
46881;SDS011;44112;38.408;-122.974;2022-08-04T05:54:12;8.88;;;5.55;;
46881;SDS011;44112;38.408;-122.974;2022-08-04T05:56:39;8.25;;;5.85;;
46881;SDS011;44112;38.408;-122.974;2022-08-04T05:59:06;10.27;;;6.05;;
46881;SDS011;44112;38.408;-122.974;2022-08-04T06:01:35;9.80;;;6.03;;
46881;SDS011;44112;38.408;-122.974;2022-08-04T06:04:04;9.43;;;5.68;;
46881;SDS011;44112;38.408;-122.974;2022-08-04T06:06:32;7.97;;;5.53;;
46881;SDS011;44112;38.408;-122.974;2022-08-04T06:09:01;9.07;;;5.40;;
46881;SDS011;44112;38.408;-122.974;2022-08-04T06:11:27;8.00;;;5.60;;
46881;SDS011;44112;38.408;-122.974;2022-08-04T06:13:56;9.65;;;5.63;;
46881;SDS011;44112;38.408;-122.974;2022-08-04T06:16:28;9.50;;;4.95;;
46881;SDS011;44112;38.408;-122.974;2022-08-04T06:19:08;8.30;;;5.35;;
46881;SDS011;44112;38.408;-122.974;2022-08-04T06:21:38;7.90;;;4.90;;
46881;SDS011;44112;38.408;-122.974;2022-08-04T06:24:08;8.65;;;5.00;;
46881;SDS011;44112;38.408;-122.974;2022-08-04T06:26:37;7.55;;;5.20;;
46881;SDS011;44112;38.408;-122.974;2022-08-04T06:29:05;8.75;;;5.28;;
46881;SDS011;44112;38.408;-122.974;2022-08-04T06:31:40;7.47;;;4.90;;
46881;SDS011;44112;38.408;-122.974;2022-08-04T06:34:12;7.47;;;4.97;;
46881;SDS011;44112;38.408;-122.974;2022-08-04T06:36:41;8.52;;;4.85;;
46881;SDS011;44112;38.408;-122.974;2022-08-04T06:39:08;8.05;;;5.03;;
46881;SDS011;44112;38.408;-122.974;2022-08-04T06:41:36;10.07;;;5.47;;
46881;SDS011;44112;38.408;-122.974;2022-08-04T06:44:06;8.55;;;4.93;;
46881;SDS011;44112;38.408;-122.974;2022-08-04T06:46:36;8.07;;;5.05;;
46881;SDS011;44112;38.408;-122.974;2022-08-04T06:49:04;8.05;;;4.90;;
46881;SDS011;44112;38.408;-122.974;2022-08-04T06:51:33;7.65;;;4.75;;
46881;SDS011;44112;38.408;-122.974;2022-08-04T06:54:02;7.70;;;5.03;;
46881;SDS011;44112;38.408;-122.974;2022-08-04T06:56:29;8.70;;;5.32;;
46881;SDS011;44112;38.408;-122.974;2022-08-04T06:58:58;8.77;;;4.97;;
46881;SDS011;44112;38.408;-122.974;2022-08-04T07:01:26;7.97;;;4.80;;
46881;SDS011;44112;38.408;-122.974;2022-08-04T07:03:54;9.25;;;5.60;;
46881;SDS011;44112;38.408;-122.974;2022-08-04T07:06:21;9.32;;;5.25;;
46881;SDS011;44112;38.408;-122.974;2022-08-04T07:08:49;12.30;;;5.97;;
46881;SDS011;44112;38.408;-122.974;2022-08-04T07:11:18;9.40;;;5.20;;
46881;SDS011;44112;38.408;-122.974;2022-08-04T07:13:45;11.98;;;5.53;;
46881;SDS011;44112;38.408;-122.974;2022-08-04T07:16:14;9.57;;;5.68;;
46881;SDS011;44112;38.408;-122.974;2022-08-04T07:18:43;11.63;;;5.10;;
46881;SDS011;44112;38.408;-122.974;2022-08-04T07:21:10;10.18;;;5.28;;
46881;SDS011;44112;38.408;-122.974;2022-08-04T07:23:44;11.40;;;5.63;;
46881;SDS011;44112;38.408;-122.974;2022-08-04T07:26:11;11.38;;;6.05;;
46881;SDS011;44112;38.408;-122.974;2022-08-04T07:28:40;13.05;;;5.70;;
46881;SDS011;44112;38.408;-122.974;2022-08-04T07:31:12;11.40;;;5.53;;
46881;SDS011;44112;38.408;-122.974;2022-08-04T07:33:42;11.35;;;5.47;;
46881;SDS011;44112;38.408;-122.974;2022-08-04T07:36:09;9.13;;;5.45;;
46881;SDS011;44112;38.408;-122.974;2022-08-04T07:38:40;13.75;;;5.35;;
46881;SDS011;44112;38.408;-122.974;2022-08-04T07:41:08;10.05;;;5.50;;
46881;SDS011;44112;38.408;-122.974;2022-08-04T07:43:35;9.18;;;5.43;;
46881;SDS011;44112;38.408;-122.974;2022-08-04T07:46:02;9.95;;;5.80;;
46881;SDS011;44112;38.408;-122.974;2022-08-04T07:48:30;10.43;;;5.38;;
46881;SDS011;44112;38.408;-122.974;2022-08-04T07:50:56;13.45;;;5.68;;
46881;SDS011;44112;38.408;-122.974;2022-08-04T07:53:24;10.52;;;5.82;;
46881;SDS011;44112;38.408;-122.974;2022-08-04T07:55:52;12.35;;;5.78;;
46881;SDS011;44112;38.408;-122.974;2022-08-04T07:58:20;12.27;;;6.18;;
46881;SDS011;44112;38.408;-122.974;2022-08-04T08:00:46;10.98;;;5.45;;
46881;SDS011;44112;38.408;-122.974;2022-08-04T08:03:14;10.35;;;5.32;;
46881;SDS011;44112;38.408;-122.974;2022-08-04T08:05:41;11.63;;;5.55;;
46881;SDS011;44112;38.408;-122.974;2022-08-04T08:08:08;13.35;;;6.20;;
46881;SDS011;44112;38.408;-122.974;2022-08-04T08:10:36;17.38;;;6.75;;
46881;SDS011;44112;38.408;-122.974;2022-08-04T08:13:04;14.02;;;6.15;;
46881;SDS011;44112;38.408;-122.974;2022-08-04T08:15:33;14.88;;;6.53;;
46881;SDS011;44112;38.408;-122.974;2022-08-04T08:18:00;15.25;;;6.40;;
46881;SDS011;44112;38.408;-122.974;2022-08-04T08:20:30;12.80;;;6.38;;
46881;SDS011;44112;38.408;-122.974;2022-08-04T08:22:58;16.35;;;6.95;;
46881;SDS011;44112;38.408;-122.974;2022-08-04T08:25:26;12.60;;;6.15;;
46881;SDS011;44112;38.408;-122.974;2022-08-04T08:27:54;16.55;;;6.95;;
46881;SDS011;44112;38.408;-122.974;2022-08-04T08:30:20;15.35;;;6.90;;
46881;SDS011;44112;38.408;-122.974;2022-08-04T08:32:48;15.15;;;7.05;;
46881;SDS011;44112;38.408;-122.974;2022-08-04T08:35:15;14.43;;;6.00;;
46881;SDS011;44112;38.408;-122.974;2022-08-04T08:37:44;14.80;;;6.65;;
46881;SDS011;44112;38.408;-122.974;2022-08-04T08:40:23;15.25;;;6.47;;
46881;SDS011;44112;38.408;-122.974;2022-08-04T08:43:15;14.23;;;7.10;;
46881;SDS011;44112;38.408;-122.974;2022-08-04T08:46:46;16.60;;;7.10;;
46881;SDS011;44112;38.408;-122.974;2022-08-04T09:11:05;14.52;;;6.72;;
46881;SDS011;44112;38.408;-122.974;2022-08-04T09:14:23;18.25;;;6.85;;
46881;SDS011;44112;38.408;-122.974;2022-08-04T09:16:44;15.05;;;7.00;;
46881;SDS011;44112;38.408;-122.974;2022-08-04T09:19:20;14.70;;;6.72;;
46881;SDS011;44112;38.408;-122.974;2022-08-04T09:22:08;17.25;;;6.95;;
46881;SDS011;44112;38.408;-122.974;2022-08-04T09:24:51;12.60;;;6.22;;
46881;SDS011;44112;38.408;-122.974;2022-08-04T09:30:06;16.73;;;6.60;;
46881;SDS011;44112;38.408;-122.974;2022-08-04T09:46:29;13.55;;;6.05;;
46881;SDS011;44112;38.408;-122.974;2022-08-04T09:49:03;13.10;;;6.55;;
46881;SDS011;44112;38.408;-122.974;2022-08-04T09:51:47;15.48;;;6.57;;
46881;SDS011;44112;38.408;-122.974;2022-08-04T09:54:20;17.27;;;6.93;;
46881;SDS011;44112;38.408;-122.974;2022-08-04T10:02:31;14.07;;;6.72;;
46881;SDS011;44112;38.408;-122.974;2022-08-04T10:14:37;13.85;;;6.00;;
46881;SDS011;44112;38.408;-122.974;2022-08-04T10:17:44;13.35;;;6.53;;
46881;SDS011;44112;38.408;-122.974;2022-08-04T10:28:42;17.02;;;6.20;;
46881;SDS011;44112;38.408;-122.974;2022-08-04T10:31:21;16.20;;;6.65;;
46881;SDS011;44112;38.408;-122.974;2022-08-04T10:33:57;14.52;;;7.05;;
46881;SDS011;44112;38.408;-122.974;2022-08-04T10:36:38;13.43;;;5.80;;
46881;SDS011;44112;38.408;-122.974;2022-08-04T10:39:39;13.98;;;6.82;;
46881;SDS011;44112;38.408;-122.974;2022-08-04T10:42:45;13.55;;;6.50;;
46881;SDS011;44112;38.408;-122.974;2022-08-04T10:45:22;15.75;;;6.43;;
46881;SDS011;44112;38.408;-122.974;2022-08-04T10:51:09;17.83;;;6.47;;
46881;SDS011;44112;38.408;-122.974;2022-08-04T10:53:57;14.40;;;6.40;;
46881;SDS011;44112;38.408;-122.974;2022-08-04T10:59:15;13.25;;;6.00;;
46881;SDS011;44112;38.408;-122.974;2022-08-04T11:08:16;14.98;;;6.20;;
46881;SDS011;44112;38.408;-122.974;2022-08-04T11:11:04;12.32;;;6.05;;
46881;SDS011;44112;38.408;-122.974;2022-08-04T11:13:52;16.67;;;6.68;;
46881;SDS011;44112;38.408;-122.974;2022-08-04T11:16:35;16.73;;;6.05;;
46881;SDS011;44112;38.408;-122.974;2022-08-04T11:22:33;13.48;;;6.05;;
46881;SDS011;44112;38.408;-122.974;2022-08-04T11:25:13;13.90;;;6.15;;
46881;SDS011;44112;38.408;-122.974;2022-08-04T11:28:22;12.65;;;6.00;;
46881;SDS011;44112;38.408;-122.974;2022-08-04T11:30:56;15.10;;;6.57;;
46881;SDS011;44112;38.408;-122.974;2022-08-04T11:36:44;16.45;;;6.53;;
46881;SDS011;44112;38.408;-122.974;2022-08-04T11:39:28;14.95;;;6.22;;
46881;SDS011;44112;38.408;-122.974;2022-08-04T11:44:48;14.02;;;6.28;;
46881;SDS011;44112;38.408;-122.974;2022-08-04T11:50:13;13.25;;;6.18;;
46881;SDS011;44112;38.408;-122.974;2022-08-04T11:52:57;13.48;;;6.25;;
46881;SDS011;44112;38.408;-122.974;2022-08-04T11:55:26;13.18;;;6.03;;
46881;SDS011;44112;38.408;-122.974;2022-08-04T11:57:54;12.90;;;5.65;;
46881;SDS011;44112;38.408;-122.974;2022-08-04T12:00:21;13.15;;;6.10;;
46881;SDS011;44112;38.408;-122.974;2022-08-04T12:06:21;13.90;;;6.45;;
46881;SDS011;44112;38.408;-122.974;2022-08-04T12:09:26;14.35;;;6.60;;
46881;SDS011;44112;38.408;-122.974;2022-08-04T12:12:27;12.40;;;5.95;;
46881;SDS011;44112;38.408;-122.974;2022-08-04T12:17:45;12.82;;;6.05;;
46881;SDS011;44112;38.408;-122.974;2022-08-04T12:20:40;12.52;;;6.53;;
46881;SDS011;44112;38.408;-122.974;2022-08-04T12:25:43;13.43;;;6.10;;
46881;SDS011;44112;38.408;-122.974;2022-08-04T12:28:15;14.00;;;6.55;;
46881;SDS011;44112;38.408;-122.974;2022-08-04T12:30:51;11.52;;;5.65;;
46881;SDS011;44112;38.408;-122.974;2022-08-04T12:33:26;13.82;;;5.97;;
46881;SDS011;44112;38.408;-122.974;2022-08-04T12:38:36;11.35;;;5.35;;
46881;SDS011;44112;38.408;-122.974;2022-08-04T12:41:20;11.80;;;5.78;;
46881;SDS011;44112;38.408;-122.974;2022-08-04T12:43:49;12.27;;;5.35;;
46881;SDS011;44112;38.408;-122.974;2022-08-04T12:46:18;11.20;;;5.53;;
46881;SDS011;44112;38.408;-122.974;2022-08-04T12:48:47;12.95;;;5.88;;
46881;SDS011;44112;38.408;-122.974;2022-08-04T12:51:15;10.20;;;5.25;;
46881;SDS011;44112;38.408;-122.974;2022-08-04T12:53:43;11.13;;;5.15;;
46881;SDS011;44112;38.408;-122.974;2022-08-04T12:56:12;11.32;;;5.22;;
46881;SDS011;44112;38.408;-122.974;2022-08-04T12:58:40;13.02;;;4.90;;
46881;SDS011;44112;38.408;-122.974;2022-08-04T13:01:12;10.43;;;5.03;;
46881;SDS011;44112;38.408;-122.974;2022-08-04T13:06:14;9.65;;;4.45;;
46881;SDS011;44112;38.408;-122.974;2022-08-04T13:08:43;10.55;;;5.18;;
46881;SDS011;44112;38.408;-122.974;2022-08-04T13:11:12;8.70;;;4.60;;
46881;SDS011;44112;38.408;-122.974;2022-08-04T13:13:42;9.43;;;4.65;;
46881;SDS011;44112;38.408;-122.974;2022-08-04T13:16:10;9.82;;;4.97;;
46881;SDS011;44112;38.408;-122.974;2022-08-04T13:18:39;8.35;;;4.55;;
46881;SDS011;44112;38.408;-122.974;2022-08-04T13:21:20;10.02;;;4.30;;
46881;SDS011;44112;38.408;-122.974;2022-08-04T13:23:52;7.78;;;4.28;;
46881;SDS011;44112;38.408;-122.974;2022-08-04T13:26:25;6.95;;;3.85;;
46881;SDS011;44112;38.408;-122.974;2022-08-04T13:28:53;8.75;;;4.03;;
46881;SDS011;44112;38.408;-122.974;2022-08-04T13:31:22;7.68;;;3.90;;
46881;SDS011;44112;38.408;-122.974;2022-08-04T13:33:53;6.68;;;3.70;;
46881;SDS011;44112;38.408;-122.974;2022-08-04T13:36:26;7.88;;;3.90;;
46881;SDS011;44112;38.408;-122.974;2022-08-04T13:38:56;7.38;;;3.67;;
46881;SDS011;44112;38.408;-122.974;2022-08-04T13:41:27;9.90;;;3.75;;
46881;SDS011;44112;38.408;-122.974;2022-08-04T13:43:56;6.63;;;3.38;;
46881;SDS011;44112;38.408;-122.974;2022-08-04T13:46:28;6.25;;;3.33;;
46881;SDS011;44112;38.408;-122.974;2022-08-04T13:48:59;6.68;;;3.50;;
46881;SDS011;44112;38.408;-122.974;2022-08-04T13:51:28;6.25;;;3.75;;
46881;SDS011;44112;38.408;-122.974;2022-08-04T13:53:57;6.70;;;3.50;;
46881;SDS011;44112;38.408;-122.974;2022-08-04T13:56:29;6.85;;;3.42;;
46881;SDS011;44112;38.408;-122.974;2022-08-04T13:59:17;7.55;;;3.30;;
46881;SDS011;44112;38.408;-122.974;2022-08-04T14:01:56;7.32;;;3.70;;
46881;SDS011;44112;38.408;-122.974;2022-08-04T14:04:26;8.23;;;3.55;;
46881;SDS011;44112;38.408;-122.974;2022-08-04T14:09:38;7.93;;;3.88;;
46881;SDS011;44112;38.408;-122.974;2022-08-04T14:12:09;6.80;;;3.30;;
46881;SDS011;44112;38.408;-122.974;2022-08-04T14:14:48;7.00;;;3.60;;
46881;SDS011;44112;38.408;-122.974;2022-08-04T14:17:17;7.28;;;3.92;;
46881;SDS011;44112;38.408;-122.974;2022-08-04T14:19:50;7.72;;;3.50;;
46881;SDS011;44112;38.408;-122.974;2022-08-04T14:27:29;7.25;;;3.53;;
46881;SDS011;44112;38.408;-122.974;2022-08-04T14:30:29;8.13;;;3.40;;
46881;SDS011;44112;38.408;-122.974;2022-08-04T14:32:58;7.82;;;3.47;;
46881;SDS011;44112;38.408;-122.974;2022-08-04T14:35:25;6.57;;;3.47;;
46881;SDS011;44112;38.408;-122.974;2022-08-04T14:37:57;7.20;;;3.10;;
46881;SDS011;44112;38.408;-122.974;2022-08-04T14:40:29;6.75;;;3.50;;
46881;SDS011;44112;38.408;-122.974;2022-08-04T14:42:58;5.40;;;3.15;;
46881;SDS011;44112;38.408;-122.974;2022-08-04T14:45:39;7.20;;;3.40;;
46881;SDS011;44112;38.408;-122.974;2022-08-04T14:48:08;6.32;;;3.50;;
46881;SDS011;44112;38.408;-122.974;2022-08-04T14:50:37;6.00;;;3.10;;
46881;SDS011;44112;38.408;-122.974;2022-08-04T14:53:06;6.15;;;3.47;;
46881;SDS011;44112;38.408;-122.974;2022-08-04T14:55:34;7.88;;;3.55;;
46881;SDS011;44112;38.408;-122.974;2022-08-04T14:58:03;6.55;;;3.30;;
46881;SDS011;44112;38.408;-122.974;2022-08-04T15:00:32;6.65;;;3.65;;
46881;SDS011;44112;38.408;-122.974;2022-08-04T15:03:03;5.40;;;3.10;;
46881;SDS011;44112;38.408;-122.974;2022-08-04T15:05:39;8.10;;;3.80;;
46881;SDS011;44112;38.408;-122.974;2022-08-04T15:08:08;6.85;;;3.90;;
46881;SDS011;44112;38.408;-122.974;2022-08-04T15:10:35;6.53;;;3.55;;
46881;SDS011;44112;38.408;-122.974;2022-08-04T15:13:02;8.32;;;3.20;;
46881;SDS011;44112;38.408;-122.974;2022-08-04T15:15:29;6.85;;;3.50;;
46881;SDS011;44112;38.408;-122.974;2022-08-04T15:17:56;7.72;;;3.88;;
46881;SDS011;44112;38.408;-122.974;2022-08-04T15:20:24;8.05;;;3.90;;
46881;SDS011;44112;38.408;-122.974;2022-08-04T15:22:51;7.30;;;3.88;;
46881;SDS011;44112;38.408;-122.974;2022-08-04T15:25:18;8.88;;;4.35;;
46881;SDS011;44112;38.408;-122.974;2022-08-04T15:27:46;8.40;;;4.30;;
46881;SDS011;44112;38.408;-122.974;2022-08-04T15:30:16;8.20;;;4.28;;
46881;SDS011;44112;38.408;-122.974;2022-08-04T15:32:47;8.93;;;4.57;;
46881;SDS011;44112;38.408;-122.974;2022-08-04T15:35:19;10.15;;;4.05;;
46881;SDS011;44112;38.408;-122.974;2022-08-04T15:40:26;9.35;;;4.57;;
46881;SDS011;44112;38.408;-122.974;2022-08-04T15:43:10;12.75;;;4.70;;
46881;SDS011;44112;38.408;-122.974;2022-08-04T15:45:55;11.90;;;4.90;;
46881;SDS011;44112;38.408;-122.974;2022-08-04T15:48:25;8.95;;;4.78;;
46881;SDS011;44112;38.408;-122.974;2022-08-04T15:53:23;10.45;;;4.50;;
46881;SDS011;44112;38.408;-122.974;2022-08-04T15:55:53;9.70;;;4.82;;
46881;SDS011;44112;38.408;-122.974;2022-08-04T15:58:20;12.95;;;5.78;;
46881;SDS011;44112;38.408;-122.974;2022-08-04T16:11:56;12.82;;;6.25;;
46881;SDS011;44112;38.408;-122.974;2022-08-04T16:19:03;11.45;;;5.45;;
46881;SDS011;44112;38.408;-122.974;2022-08-04T16:21:52;12.07;;;5.45;;
46881;SDS011;44112;38.408;-122.974;2022-08-04T16:24:21;14.65;;;6.35;;
46881;SDS011;44112;38.408;-122.974;2022-08-04T16:27:00;14.05;;;6.68;;
46881;SDS011;44112;38.408;-122.974;2022-08-04T16:29:29;12.82;;;5.75;;
46881;SDS011;44112;38.408;-122.974;2022-08-04T16:35:02;14.85;;;6.50;;
46881;SDS011;44112;38.408;-122.974;2022-08-04T16:37:42;12.40;;;6.13;;
46881;SDS011;44112;38.408;-122.974;2022-08-04T16:40:28;17.35;;;6.93;;
46881;SDS011;44112;38.408;-122.974;2022-08-04T16:45:41;16.30;;;7.10;;
46881;SDS011;44112;38.408;-122.974;2022-08-04T16:48:13;15.77;;;7.00;;
46881;SDS011;44112;38.408;-122.974;2022-08-04T16:53:20;19.45;;;7.40;;
46881;SDS011;44112;38.408;-122.974;2022-08-04T16:55:49;17.85;;;6.72;;
46881;SDS011;44112;38.408;-122.974;2022-08-04T16:58:23;18.10;;;7.25;;
46881;SDS011;44112;38.408;-122.974;2022-08-04T17:00:54;20.60;;;7.60;;
46881;SDS011;44112;38.408;-122.974;2022-08-04T17:03:21;22.27;;;8.05;;
46881;SDS011;44112;38.408;-122.974;2022-08-04T17:05:48;17.35;;;7.25;;
46881;SDS011;44112;38.408;-122.974;2022-08-04T17:08:14;16.45;;;7.65;;
46881;SDS011;44112;38.408;-122.974;2022-08-04T17:10:45;20.65;;;6.65;;
46881;SDS011;44112;38.408;-122.974;2022-08-04T17:13:23;25.65;;;8.25;;
46881;SDS011;44112;38.408;-122.974;2022-08-04T17:15:56;19.92;;;9.05;;
46881;SDS011;44112;38.408;-122.974;2022-08-04T17:18:33;26.23;;;10.05;;
46881;SDS011;44112;38.408;-122.974;2022-08-04T17:21:08;22.70;;;8.23;;
46881;SDS011;44112;38.408;-122.974;2022-08-04T17:23:44;22.33;;;8.20;;
46881;SDS011;44112;38.408;-122.974;2022-08-04T17:26:15;31.25;;;9.70;;
46881;SDS011;44112;38.408;-122.974;2022-08-04T17:28:45;23.08;;;8.25;;
46881;SDS011;44112;38.408;-122.974;2022-08-04T17:31:13;25.73;;;10.00;;
46881;SDS011;44112;38.408;-122.974;2022-08-04T17:33:43;29.05;;;8.65;;
46881;SDS011;44112;38.408;-122.974;2022-08-04T17:36:11;30.40;;;8.48;;
46881;SDS011;44112;38.408;-122.974;2022-08-04T17:38:43;25.00;;;9.40;;
46881;SDS011;44112;38.408;-122.974;2022-08-04T17:41:18;23.48;;;8.35;;
46881;SDS011;44112;38.408;-122.974;2022-08-04T17:51:35;27.20;;;8.60;;
46881;SDS011;44112;38.408;-122.974;2022-08-04T17:54:07;24.60;;;8.02;;
46881;SDS011;44112;38.408;-122.974;2022-08-04T17:56:37;23.80;;;8.30;;
46881;SDS011;44112;38.408;-122.974;2022-08-04T18:07:06;20.73;;;8.00;;
46881;SDS011;44112;38.408;-122.974;2022-08-04T18:12:28;20.45;;;7.65;;
46881;SDS011;44112;38.408;-122.974;2022-08-04T18:17:35;24.33;;;8.40;;
46881;SDS011;44112;38.408;-122.974;2022-08-04T18:20:12;22.73;;;8.75;;
46881;SDS011;44112;38.408;-122.974;2022-08-04T18:22:43;24.85;;;8.68;;
46881;SDS011;44112;38.408;-122.974;2022-08-04T18:25:11;24.05;;;8.65;;
46881;SDS011;44112;38.408;-122.974;2022-08-04T18:27:46;22.05;;;8.15;;
46881;SDS011;44112;38.408;-122.974;2022-08-04T18:30:24;25.08;;;8.02;;
46881;SDS011;44112;38.408;-122.974;2022-08-04T18:32:53;20.17;;;7.85;;
46881;SDS011;44112;38.408;-122.974;2022-08-04T18:35:20;20.65;;;7.47;;
46881;SDS011;44112;38.408;-122.974;2022-08-04T18:37:47;23.63;;;8.55;;
46881;SDS011;44112;38.408;-122.974;2022-08-04T18:40:15;21.05;;;8.52;;
46881;SDS011;44112;38.408;-122.974;2022-08-04T18:42:42;25.70;;;7.80;;
46881;SDS011;44112;38.408;-122.974;2022-08-04T18:45:09;16.35;;;7.60;;
46881;SDS011;44112;38.408;-122.974;2022-08-04T18:47:37;23.77;;;7.70;;
46881;SDS011;44112;38.408;-122.974;2022-08-04T18:50:04;25.67;;;8.85;;
46881;SDS011;44112;38.408;-122.974;2022-08-04T18:52:31;23.67;;;9.05;;
46881;SDS011;44112;38.408;-122.974;2022-08-04T18:54:57;20.02;;;8.00;;
46881;SDS011;44112;38.408;-122.974;2022-08-04T18:57:25;25.45;;;8.43;;
46881;SDS011;44112;38.408;-122.974;2022-08-04T18:59:53;19.38;;;7.63;;
46881;SDS011;44112;38.408;-122.974;2022-08-04T19:02:20;23.45;;;8.57;;
46881;SDS011;44112;38.408;-122.974;2022-08-04T19:04:47;24.23;;;8.35;;
46881;SDS011;44112;38.408;-122.974;2022-08-04T19:07:14;17.83;;;7.85;;
46881;SDS011;44112;38.408;-122.974;2022-08-04T19:09:42;17.75;;;8.02;;
46881;SDS011;44112;38.408;-122.974;2022-08-04T19:12:09;19.75;;;8.48;;
46881;SDS011;44112;38.408;-122.974;2022-08-04T19:14:36;19.42;;;7.97;;
46881;SDS011;44112;38.408;-122.974;2022-08-04T19:17:03;21.38;;;7.93;;
46881;SDS011;44112;38.408;-122.974;2022-08-04T19:19:30;24.27;;;8.65;;
46881;SDS011;44112;38.408;-122.974;2022-08-04T19:21:57;22.08;;;7.95;;
46881;SDS011;44112;38.408;-122.974;2022-08-04T19:24:24;17.40;;;7.40;;
46881;SDS011;44112;38.408;-122.974;2022-08-04T19:26:51;21.92;;;7.60;;
46881;SDS011;44112;38.408;-122.974;2022-08-04T19:29:17;19.33;;;8.40;;
46881;SDS011;44112;38.408;-122.974;2022-08-04T19:31:44;17.75;;;7.80;;
46881;SDS011;44112;38.408;-122.974;2022-08-04T19:34:11;18.70;;;7.90;;
46881;SDS011;44112;38.408;-122.974;2022-08-04T19:36:38;16.63;;;6.93;;
46881;SDS011;44112;38.408;-122.974;2022-08-04T19:39:07;26.23;;;8.68;;